createdAt,value
2018-07-24T00:00:26.924Z,23.70
2018-07-24T00:02:55.496Z,25.97
2018-07-24T00:05:24.037Z,25.40
2018-07-24T00:07:52.594Z,23.67
2018-07-24T00:10:21.166Z,23.77
2018-07-24T00:12:49.712Z,25.13
2018-07-24T00:15:19.336Z,24.77
2018-07-24T00:17:47.936Z,25.33
2018-07-24T00:20:16.427Z,26.10
2018-07-24T00:22:45.001Z,26.77
2018-07-24T00:25:13.498Z,25.00
2018-07-24T00:27:42.085Z,23.77
2018-07-24T00:30:11.627Z,24.00
2018-07-24T00:32:40.136Z,24.70
2018-07-24T00:35:08.947Z,23.77
2018-07-24T00:37:37.503Z,25.10
2018-07-24T00:40:06.332Z,24.73
2018-07-24T00:42:35.221Z,22.97
2018-07-24T00:45:04.080Z,23.70
2018-07-24T00:47:32.928Z,24.63
2018-07-24T00:50:01.480Z,22.87
2018-07-24T00:52:30.027Z,25.67
2018-07-24T00:55:00.536Z,24.77
2018-07-24T00:57:29.060Z,24.47
2018-07-24T00:59:57.568Z,24.30
2018-07-24T01:02:26.140Z,23.93
2018-07-24T01:04:54.660Z,24.13
2018-07-24T01:07:23.196Z,25.50
2018-07-24T01:09:51.760Z,26.20
2018-07-24T01:12:20.318Z,25.10
2018-07-24T01:14:48.864Z,27.00
2018-07-24T01:17:17.441Z,24.63
2018-07-24T01:19:45.926Z,27.57
2018-07-24T01:22:14.477Z,25.80
2018-07-24T01:24:43.525Z,24.27
2018-07-24T01:27:13.154Z,25.57
2018-07-24T01:29:41.640Z,25.47
2018-07-24T01:32:10.165Z,26.20
2018-07-24T01:34:40.726Z,25.17
2018-07-24T01:37:09.274Z,26.30
2018-07-24T01:39:37.815Z,27.93
2018-07-24T01:42:06.342Z,31.40
2018-07-24T01:44:34.515Z,35.93
2018-07-24T01:47:03.461Z,36.47
2018-07-24T01:49:32.058Z,34.67
2018-07-24T01:52:00.921Z,33.50
2018-07-24T01:54:29.478Z,37.30
2018-07-24T01:56:58.401Z,38.53
2018-07-24T01:59:27.276Z,36.67
2018-07-24T02:01:55.799Z,38.40
2018-07-24T02:04:24.432Z,36.20
2018-07-24T02:06:53.005Z,36.87
2018-07-24T02:09:21.523Z,37.30
2018-07-24T02:11:50.235Z,41.10
2018-07-24T02:14:18.802Z,41.40
2018-07-24T02:16:47.385Z,38.67
2018-07-24T02:19:15.956Z,35.27
2018-07-24T02:21:44.541Z,37.50
2018-07-24T02:24:13.125Z,41.70
2018-07-24T02:26:41.748Z,38.10
2018-07-24T02:29:10.321Z,37.63
2018-07-24T02:31:38.885Z,38.53
2018-07-24T02:34:07.453Z,37.90
2018-07-24T02:36:36.050Z,35.87
2018-07-24T02:39:08.505Z,36.10
2018-07-24T02:41:37.101Z,38.50
2018-07-24T02:44:05.714Z,36.47
2018-07-24T02:46:34.276Z,36.30
2018-07-24T02:49:02.996Z,37.50
2018-07-24T02:51:31.842Z,38.50
2018-07-24T02:54:00.491Z,34.43
2018-07-24T02:56:29.503Z,39.27
2018-07-24T02:58:58.053Z,38.60
2018-07-24T03:01:27.013Z,35.20
2018-07-24T03:03:55.644Z,39.20
2018-07-24T03:06:24.333Z,34.93
2018-07-24T03:08:52.928Z,40.73
2018-07-24T03:11:21.528Z,38.10
2018-07-24T03:13:50.090Z,35.77
2018-07-24T03:16:18.352Z,37.57
2018-07-24T03:18:46.587Z,34.23
2018-07-24T03:21:15.150Z,31.23
2018-07-24T03:23:43.719Z,32.50
2018-07-24T03:26:12.259Z,29.87
2018-07-24T03:28:40.773Z,27.30
2018-07-24T03:31:09.372Z,30.40
2018-07-24T03:33:37.943Z,29.40
2018-07-24T03:36:06.438Z,27.77
2018-07-24T03:38:35.003Z,28.87
2018-07-24T03:41:03.541Z,27.37
2018-07-24T03:43:32.098Z,27.50
2018-07-24T03:46:00.631Z,29.83
2018-07-24T03:48:29.249Z,26.17
2018-07-24T03:50:57.830Z,28.70
2018-07-24T03:53:26.424Z,32.10
2018-07-24T03:55:54.936Z,29.83
2018-07-24T03:58:23.511Z,28.87
2018-07-24T04:00:52.082Z,29.63
2018-07-24T04:03:20.661Z,29.70
2018-07-24T04:05:51.308Z,31.20
2018-07-24T04:08:19.818Z,28.53
2018-07-24T04:10:48.324Z,31.10
2018-07-24T04:13:16.567Z,27.53
2018-07-24T04:15:45.151Z,29.50
2018-07-24T04:18:13.630Z,30.67
2018-07-24T04:20:42.185Z,29.47
2018-07-24T04:23:10.931Z,33.20
2018-07-24T04:25:39.098Z,29.17
2018-07-24T04:28:07.618Z,30.83
2018-07-24T04:30:36.169Z,29.60
2018-07-24T04:33:04.709Z,28.37
2018-07-24T04:35:33.312Z,29.27
2018-07-24T04:38:01.817Z,29.77
2018-07-24T04:40:31.483Z,28.50
2018-07-24T04:43:00.085Z,27.53
2018-07-24T04:45:28.604Z,30.03
2018-07-24T04:47:57.143Z,30.40
2018-07-24T04:50:25.683Z,31.23
2018-07-24T04:52:54.257Z,29.27
2018-07-24T04:55:22.837Z,28.57
2018-07-24T04:57:51.398Z,27.07
2018-07-24T05:00:19.923Z,28.17
2018-07-24T05:02:48.449Z,28.27
2018-07-24T05:05:17.047Z,28.50
2018-07-24T05:07:45.600Z,28.90
2018-07-24T05:10:14.230Z,27.87
2018-07-24T05:12:42.707Z,28.07
2018-07-24T05:15:11.272Z,30.03
2018-07-24T05:17:39.858Z,28.33
2018-07-24T05:20:08.412Z,30.37
2018-07-24T05:22:36.953Z,27.30
2018-07-24T05:25:05.548Z,26.87
2018-07-24T05:27:34.145Z,31.10
2018-07-24T05:30:02.661Z,28.17
2018-07-24T05:32:31.256Z,29.37
2018-07-24T05:34:59.860Z,27.60
2018-07-24T05:37:28.366Z,29.53
2018-07-24T05:39:56.970Z,29.43
2018-07-24T05:42:25.517Z,28.73
2018-07-24T05:44:54.034Z,28.03
2018-07-24T05:47:22.575Z,29.83
2018-07-24T05:49:51.130Z,28.40
2018-07-24T05:52:19.623Z,30.70
2018-07-24T05:54:48.157Z,33.10
2018-07-24T05:57:16.699Z,34.60
2018-07-24T05:59:45.235Z,32.27
2018-07-24T06:02:17.661Z,37.30
2018-07-24T06:04:46.277Z,39.23
2018-07-24T06:07:14.804Z,34.17
2018-07-24T06:09:43.368Z,35.33
2018-07-24T06:12:11.991Z,35.93
2018-07-24T06:14:40.545Z,33.40
2018-07-24T06:17:09.061Z,35.67
2018-07-24T06:19:37.608Z,35.50
2018-07-24T06:22:07.178Z,37.77
2018-07-24T06:24:35.687Z,43.70
2018-07-24T06:27:04.238Z,47.27
2018-07-24T06:29:32.819Z,47.27
2018-07-24T06:32:01.391Z,46.97
2018-07-24T06:34:29.967Z,44.73
2018-07-24T06:36:58.517Z,47.77
2018-07-24T06:39:27.092Z,48.10
2018-07-24T06:41:55.679Z,45.83
2018-07-24T06:44:24.319Z,43.27
2018-07-24T06:46:52.769Z,38.30
2018-07-24T06:49:21.301Z,37.70
2018-07-24T06:51:49.923Z,32.97
2018-07-24T06:54:18.396Z,31.17
2018-07-24T06:56:46.960Z,29.80
2018-07-24T06:59:15.488Z,27.90
2018-07-24T07:01:44.095Z,27.73
2018-07-24T07:04:12.592Z,33.77
2018-07-24T07:06:41.140Z,29.53
2018-07-24T07:09:09.625Z,29.30
2018-07-24T07:11:38.177Z,28.27
2018-07-24T07:14:06.923Z,28.20
2018-07-24T07:16:35.651Z,27.80
2018-07-24T07:19:04.180Z,28.80
2018-07-24T07:21:32.732Z,28.87
2018-07-24T07:24:01.261Z,25.57
2018-07-24T07:26:29.851Z,26.67
2018-07-24T07:28:58.407Z,25.47
2018-07-24T07:31:26.925Z,23.90
2018-07-24T07:33:55.447Z,24.30
2018-07-24T07:36:23.919Z,25.17
2018-07-24T07:38:52.496Z,27.57
2018-07-24T07:41:21.016Z,26.43
2018-07-24T07:43:49.641Z,28.00
2018-07-24T07:46:18.152Z,25.53
2018-07-24T07:48:46.774Z,26.43
2018-07-24T07:51:15.340Z,25.87
2018-07-24T07:53:48.890Z,27.70
2018-07-24T07:56:17.485Z,26.27
2018-07-24T07:58:46.026Z,28.27
2018-07-24T08:01:14.662Z,29.00
2018-07-24T08:03:43.214Z,24.80
2018-07-24T08:06:12.804Z,23.33
2018-07-24T08:08:41.380Z,22.83
2018-07-24T08:11:09.908Z,22.33
2018-07-24T08:13:38.525Z,23.13
2018-07-24T08:16:07.174Z,21.30
2018-07-24T08:18:35.679Z,20.93
2018-07-24T08:21:04.219Z,22.67
2018-07-24T08:23:32.774Z,20.07
2018-07-24T08:26:01.277Z,18.40
2018-07-24T08:28:29.800Z,19.03
2018-07-24T08:30:58.413Z,18.43
2018-07-24T08:33:26.602Z,18.30
2018-07-24T08:35:55.185Z,17.20
2018-07-24T08:38:23.879Z,17.10
2018-07-24T08:40:52.744Z,15.63
2018-07-24T08:43:21.005Z,14.70
2018-07-24T08:45:49.578Z,15.30
2018-07-24T08:48:18.151Z,13.50
2018-07-24T08:50:46.746Z,14.57
2018-07-24T08:53:15.524Z,14.47
2018-07-24T08:55:44.074Z,13.23
2018-07-24T08:58:12.339Z,12.80
2018-07-24T09:00:40.933Z,12.70
2018-07-24T09:03:09.531Z,13.60
2018-07-24T09:05:38.149Z,12.50
2018-07-24T09:08:06.785Z,12.20
2018-07-24T09:10:35.371Z,12.20
2018-07-24T09:13:04.004Z,12.10
2018-07-24T09:15:32.580Z,11.87
2018-07-24T09:18:01.506Z,11.67
2018-07-24T09:20:30.048Z,11.80
2018-07-24T09:22:58.792Z,12.13
2018-07-24T09:25:27.564Z,12.50
2018-07-24T09:27:56.133Z,11.87
2018-07-24T09:30:24.292Z,11.33
2018-07-24T09:32:52.874Z,12.50
2018-07-24T09:35:21.402Z,11.60
2018-07-24T09:37:49.962Z,11.77
2018-07-24T09:40:18.221Z,11.03
2018-07-24T09:42:46.784Z,10.80
2018-07-24T09:45:15.260Z,11.63
2018-07-24T09:47:43.980Z,10.57
2018-07-24T09:50:12.143Z,10.60
2018-07-24T09:52:40.696Z,10.50
2018-07-24T09:55:09.324Z,10.47
2018-07-24T09:57:37.512Z,11.27
2018-07-24T10:00:06.616Z,11.67
2018-07-24T10:02:35.240Z,10.90
2018-07-24T10:05:03.846Z,10.73
2018-07-24T10:07:32.695Z,9.57
2018-07-24T10:10:01.340Z,9.80
2018-07-24T10:12:29.907Z,10.73
2018-07-24T10:14:58.474Z,10.10
2018-07-24T10:17:27.056Z,10.13
2018-07-24T10:19:55.597Z,11.70
2018-07-24T10:22:24.234Z,11.20
2018-07-24T10:24:52.698Z,10.53
2018-07-24T10:27:21.272Z,10.97
2018-07-24T10:29:49.870Z,10.87
2018-07-24T10:32:18.498Z,11.20
2018-07-24T10:34:47.025Z,11.53
2018-07-24T10:37:15.576Z,12.23
2018-07-24T10:39:44.057Z,11.30
2018-07-24T10:42:12.579Z,11.73
2018-07-24T10:44:41.140Z,10.50
2018-07-24T10:47:09.656Z,11.53
2018-07-24T10:49:38.203Z,9.97
2018-07-24T10:52:06.810Z,9.90
2018-07-24T10:54:35.343Z,10.17
2018-07-24T10:57:03.828Z,9.70
2018-07-24T10:59:32.382Z,9.97
2018-07-24T11:02:00.965Z,10.47
2018-07-24T11:04:29.525Z,9.90
2018-07-24T11:06:58.074Z,10.00
2018-07-24T11:09:26.610Z,10.00
2018-07-24T11:11:55.098Z,9.60
2018-07-24T11:14:23.608Z,9.33
2018-07-24T11:16:52.141Z,9.50
2018-07-24T11:19:20.653Z,9.23
2018-07-24T11:21:49.217Z,9.40
2018-07-24T11:24:17.764Z,9.60
2018-07-24T11:26:46.318Z,8.60
2018-07-24T11:29:14.778Z,9.63
2018-07-24T11:31:42.978Z,9.53
2018-07-24T11:34:11.536Z,9.27
2018-07-24T11:36:40.131Z,10.40
2018-07-24T11:39:10.713Z,10.10
2018-07-24T11:41:39.399Z,11.43
2018-07-24T11:44:08.425Z,10.60
2018-07-24T11:46:37.078Z,10.27
2018-07-24T11:49:05.564Z,10.40
2018-07-24T11:51:34.271Z,9.97
2018-07-24T11:54:02.813Z,9.73
2018-07-24T11:56:31.347Z,8.80
2018-07-24T11:58:59.916Z,8.70
2018-07-24T12:01:28.406Z,9.50
2018-07-24T12:03:56.908Z,9.33
2018-07-24T12:06:25.472Z,9.87
2018-07-24T12:08:54.061Z,9.70
2018-07-24T12:11:24.660Z,10.67
2018-07-24T12:13:53.213Z,10.73
2018-07-24T12:16:21.740Z,10.33
2018-07-24T12:18:50.364Z,10.30
2018-07-24T12:21:18.892Z,8.83
2018-07-24T12:23:47.493Z,8.87
2018-07-24T12:26:16.028Z,9.17
2018-07-24T12:28:44.581Z,8.50
2018-07-24T12:31:13.195Z,9.00
2018-07-24T12:33:41.794Z,9.27
2018-07-24T12:36:10.466Z,9.87
2018-07-24T12:38:38.898Z,8.17
2018-07-24T12:41:07.765Z,8.40
2018-07-24T12:43:36.342Z,8.67
2018-07-24T12:46:04.819Z,9.30
2018-07-24T12:48:33.431Z,9.80
2018-07-24T12:51:05.641Z,9.40
2018-07-24T12:53:35.307Z,8.47
2018-07-24T12:56:11.489Z,8.57
2018-07-24T12:58:39.982Z,8.50
2018-07-24T13:01:08.664Z,8.63
2018-07-24T13:03:37.215Z,7.90
2018-07-24T13:06:06.329Z,7.97
2018-07-24T13:08:35.051Z,8.57
2018-07-24T13:11:03.720Z,8.47
2018-07-24T13:13:32.269Z,8.30
2018-07-24T13:16:00.812Z,8.67
2018-07-24T13:18:29.424Z,8.03
2018-07-24T13:20:57.985Z,8.80
2018-07-24T13:26:33.295Z,7.90
2018-07-24T13:29:01.966Z,7.90
2018-07-24T13:31:30.533Z,8.63
2018-07-24T13:33:59.093Z,8.40
2018-07-24T13:36:29.797Z,8.50
2018-07-24T13:38:58.277Z,8.37
2018-07-24T13:41:27.064Z,9.17
2018-07-24T13:43:56.898Z,8.67
2018-07-24T13:46:25.490Z,9.57
2018-07-24T13:48:54.502Z,8.67
2018-07-24T13:51:23.168Z,7.53
2018-07-24T13:53:51.633Z,9.17
2018-07-24T13:56:20.340Z,8.10
2018-07-24T13:58:48.903Z,7.67
2018-07-24T14:01:17.863Z,8.07
2018-07-24T14:03:48.475Z,8.10
2018-07-24T14:06:17.020Z,8.10
2018-07-24T14:08:45.942Z,8.80
2018-07-24T14:11:17.691Z,8.37
2018-07-24T14:13:46.189Z,8.30
2018-07-24T14:16:20.382Z,8.93
2018-07-24T14:18:48.907Z,9.07
2018-07-24T14:21:17.607Z,8.60
2018-07-24T14:26:51.650Z,8.63
2018-07-24T14:29:20.352Z,8.00
2018-07-24T14:31:48.960Z,8.53
2018-07-24T14:34:17.572Z,7.83
2018-07-24T14:36:48.945Z,7.60
2018-07-24T14:39:17.475Z,8.17
2018-07-24T14:41:46.089Z,7.30
2018-07-24T14:44:14.691Z,8.40
2018-07-24T14:46:43.293Z,7.50
2018-07-24T14:49:11.865Z,8.70
2018-07-24T14:51:41.580Z,9.23
2018-07-24T14:54:10.135Z,8.20
2018-07-24T14:56:38.823Z,8.50
2018-07-24T14:59:07.415Z,8.60
2018-07-24T15:01:36.135Z,8.50
2018-07-24T15:04:04.691Z,8.00
2018-07-24T15:06:33.608Z,8.10
2018-07-24T15:09:02.031Z,7.70
2018-07-24T15:11:30.923Z,8.13
2018-07-24T15:13:59.647Z,8.50
2018-07-24T15:16:28.221Z,7.23
2018-07-24T15:18:56.672Z,8.87
2018-07-24T15:21:25.203Z,7.53
2018-07-24T15:23:53.677Z,8.13
2018-07-24T15:26:22.253Z,7.83
2018-07-24T15:28:50.827Z,7.93
2018-07-24T15:31:19.307Z,8.43
2018-07-24T15:33:47.818Z,8.30
2018-07-24T15:36:16.428Z,8.40
2018-07-24T15:38:44.957Z,8.27
2018-07-24T15:41:13.650Z,8.60
2018-07-24T15:43:42.141Z,7.80
2018-07-24T15:46:10.662Z,8.70
2018-07-24T15:48:39.294Z,8.53
2018-07-24T15:51:07.796Z,9.03
2018-07-24T15:53:36.336Z,8.60
2018-07-24T15:56:05.920Z,7.87
2018-07-24T15:58:34.471Z,7.03
2018-07-24T16:01:03.024Z,8.27
2018-07-24T16:03:31.591Z,7.47
2018-07-24T16:06:00.086Z,7.60
2018-07-24T16:08:28.565Z,6.90
2018-07-24T16:10:57.073Z,7.07
2018-07-24T16:13:25.589Z,6.93
2018-07-24T16:15:54.233Z,6.90
2018-07-24T16:18:22.704Z,7.80
2018-07-24T16:20:51.227Z,7.40
2018-07-24T16:23:19.757Z,6.93
2018-07-24T16:25:48.333Z,7.40
2018-07-24T16:28:16.944Z,6.67
2018-07-24T16:30:45.610Z,6.77
2018-07-24T16:33:14.165Z,7.13
2018-07-24T16:35:42.779Z,7.50
2018-07-24T16:38:11.368Z,7.93
2018-07-24T16:40:40.001Z,7.53
2018-07-24T16:43:08.604Z,9.53
2018-07-24T16:45:37.194Z,7.50
2018-07-24T16:48:05.701Z,8.00
2018-07-24T16:50:34.458Z,7.43
2018-07-24T16:53:02.877Z,6.73
2018-07-24T16:55:31.337Z,7.20
2018-07-24T16:57:59.983Z,8.53
2018-07-24T17:00:28.492Z,7.20
2018-07-24T17:02:57.005Z,7.23
2018-07-24T17:05:26.094Z,7.33
2018-07-24T17:07:54.768Z,7.33
2018-07-24T17:10:23.921Z,6.70
2018-07-24T17:12:52.546Z,7.33
2018-07-24T17:15:21.065Z,7.00
2018-07-24T17:17:50.643Z,7.57
2018-07-24T17:20:19.174Z,7.23
2018-07-24T17:22:47.814Z,7.83
2018-07-24T17:25:16.319Z,7.53
2018-07-24T17:27:44.893Z,7.40
2018-07-24T17:30:13.381Z,7.10
2018-07-24T17:32:41.906Z,7.33
2018-07-24T17:35:10.414Z,7.40
2018-07-24T17:37:38.989Z,7.53
2018-07-24T17:40:07.504Z,7.87
2018-07-24T17:42:36.008Z,7.60
2018-07-24T17:45:04.608Z,7.10
2018-07-24T17:47:33.181Z,7.80
2018-07-24T17:50:01.734Z,7.37
2018-07-24T17:52:30.306Z,7.57
2018-07-24T17:54:58.854Z,7.20
2018-07-24T17:57:27.465Z,9.90
2018-07-24T17:59:55.979Z,7.33
2018-07-24T18:02:24.471Z,7.23
2018-07-24T18:04:53.008Z,8.10
2018-07-24T18:07:21.646Z,8.57
2018-07-24T18:09:50.180Z,7.47
2018-07-24T18:12:18.700Z,8.93
2018-07-24T18:14:47.257Z,8.43
2018-07-24T18:17:22.234Z,8.03
2018-07-24T18:19:50.802Z,7.80
2018-07-24T18:22:19.350Z,7.63
2018-07-24T18:24:48.514Z,8.43
2018-07-24T18:27:17.106Z,8.30
2018-07-24T18:29:45.633Z,9.10
2018-07-24T18:32:14.147Z,9.10
2018-07-24T18:34:42.761Z,9.87
2018-07-24T18:37:11.375Z,8.80
2018-07-24T18:39:39.908Z,8.40
2018-07-24T18:42:08.448Z,10.00
2018-07-24T18:44:36.950Z,9.70
2018-07-24T18:47:05.551Z,8.80
2018-07-24T18:49:34.140Z,8.70
2018-07-24T18:52:02.379Z,9.27
2018-07-24T18:54:30.921Z,8.90
2018-07-24T18:56:59.497Z,8.97
2018-07-24T18:59:28.104Z,9.47
2018-07-24T19:01:56.724Z,8.30
2018-07-24T19:04:25.217Z,9.23
2018-07-24T19:06:53.751Z,8.30
2018-07-24T19:09:22.354Z,9.20
2018-07-24T19:11:51.073Z,8.90
2018-07-24T19:14:19.666Z,10.10
2018-07-24T19:16:48.245Z,8.47
2018-07-24T19:19:16.810Z,9.30
2018-07-24T19:21:45.292Z,10.00
2018-07-24T19:24:13.873Z,9.03
2018-07-24T19:26:42.443Z,9.33
2018-07-24T19:29:10.952Z,9.20
2018-07-24T19:31:40.636Z,9.50
2018-07-24T19:34:09.345Z,9.10
2018-07-24T19:36:37.891Z,10.07
2018-07-24T19:39:09.519Z,10.33
2018-07-24T19:41:38.101Z,9.40
2018-07-24T19:44:06.874Z,9.50
2018-07-24T19:46:35.373Z,10.63
2018-07-24T19:49:04.065Z,9.10
2018-07-24T19:51:32.584Z,10.03
2018-07-24T19:54:02.260Z,9.53
2018-07-24T19:56:31.385Z,10.17
2018-07-24T19:59:00.481Z,9.23
2018-07-24T20:01:29.413Z,9.33
2018-07-24T20:03:57.975Z,9.70
2018-07-24T20:06:26.476Z,9.50
2018-07-24T20:09:01.421Z,9.20
2018-07-24T20:11:29.969Z,10.03
2018-07-24T20:13:58.501Z,9.40
2018-07-24T20:16:27.000Z,10.27
2018-07-24T20:18:55.579Z,9.17
2018-07-24T20:21:24.121Z,10.57
2018-07-24T20:23:52.678Z,10.37
2018-07-24T20:26:21.169Z,10.77
2018-07-24T20:28:50.816Z,10.97
2018-07-24T20:31:19.385Z,10.47
2018-07-24T20:33:47.965Z,10.27
2018-07-24T20:36:16.530Z,10.30
2018-07-24T20:38:45.150Z,10.00
2018-07-24T20:41:13.736Z,9.00
2018-07-24T20:43:42.311Z,10.73
2018-07-24T20:46:11.160Z,11.13
2018-07-24T20:48:39.979Z,10.50
2018-07-24T20:51:08.810Z,10.53
2018-07-24T20:53:37.650Z,10.70
2018-07-24T20:56:06.350Z,9.77
2018-07-24T20:58:34.929Z,10.37
2018-07-24T21:01:03.466Z,9.37
2018-07-24T21:03:32.135Z,9.27
2018-07-24T21:06:00.700Z,10.13
2018-07-24T21:08:29.813Z,9.57
2018-07-24T21:10:58.376Z,9.90
2018-07-24T21:13:26.881Z,8.60
2018-07-24T21:15:55.352Z,9.57
2018-07-24T21:18:23.951Z,9.37
2018-07-24T21:20:52.516Z,10.40
2018-07-24T21:23:20.950Z,9.20
2018-07-24T21:25:49.551Z,10.20
2018-07-24T21:28:18.123Z,10.90
2018-07-24T21:30:46.692Z,11.07
2018-07-24T21:33:15.266Z,9.60
2018-07-24T21:35:43.776Z,10.13
2018-07-24T21:38:13.318Z,9.07
2018-07-24T21:40:41.801Z,10.10
2018-07-24T21:43:10.334Z,9.27
2018-07-24T21:45:38.882Z,10.07
2018-07-24T21:48:07.396Z,9.70
2018-07-24T21:50:35.956Z,9.70
2018-07-24T21:53:04.546Z,9.60
2018-07-24T21:55:33.084Z,9.90
2018-07-24T21:58:01.578Z,10.90
2018-07-24T22:00:36.530Z,9.57
2018-07-24T22:03:07.048Z,9.80
2018-07-24T22:05:35.553Z,10.77
2018-07-24T22:08:04.234Z,11.03
2018-07-24T22:10:32.799Z,10.47
2018-07-24T22:13:01.346Z,11.13
2018-07-24T22:15:29.862Z,11.20
2018-07-24T22:17:58.437Z,11.10
2018-07-24T22:20:27.044Z,10.73
2018-07-24T22:22:55.528Z,11.07
2018-07-24T22:25:24.039Z,10.80
2018-07-24T22:27:52.578Z,10.80
2018-07-24T22:30:21.068Z,11.50
2018-07-24T22:32:49.668Z,10.93
2018-07-24T22:35:18.222Z,11.80
2018-07-24T22:37:46.680Z,11.03
2018-07-24T22:40:14.895Z,11.30
2018-07-24T22:42:43.423Z,11.73
2018-07-24T22:45:11.948Z,11.67
2018-07-24T22:47:40.451Z,11.20
2018-07-24T22:50:09.108Z,11.60
2018-07-24T22:52:37.669Z,10.53
2018-07-24T22:55:06.277Z,11.77
2018-07-24T22:57:34.779Z,11.50
2018-07-24T23:00:03.355Z,12.17
2018-07-24T23:02:31.952Z,12.27
2018-07-24T23:05:00.429Z,12.33
2018-07-24T23:07:28.954Z,11.27
2018-07-24T23:09:57.549Z,10.40
2018-07-24T23:12:26.034Z,12.40
2018-07-24T23:14:54.558Z,11.37
2018-07-24T23:17:23.128Z,12.13
2018-07-24T23:19:51.735Z,12.03
2018-07-24T23:22:20.233Z,11.60
2018-07-24T23:24:48.717Z,11.47
2018-07-24T23:27:17.279Z,11.97
2018-07-24T23:29:45.804Z,11.27
2018-07-24T23:32:14.337Z,11.27
2018-07-24T23:34:42.961Z,12.50
2018-07-24T23:37:11.544Z,12.53
2018-07-24T23:39:40.089Z,13.20
2018-07-24T23:42:08.728Z,13.10
2018-07-24T23:44:37.204Z,13.40
2018-07-24T23:47:05.889Z,11.60
2018-07-24T23:49:34.377Z,12.47
2018-07-24T23:52:02.887Z,13.33
2018-07-24T23:54:31.378Z,13.00
2018-07-24T23:56:59.924Z,13.00
2018-07-24T23:59:28.457Z,13.47
